sensor_id;sensor_type;location;lat;lon;timestamp;temperature;humidity
5023;DHT22;2530;47.990;7.866;2023-08-24T00:01:26;21.70;99.90
5023;DHT22;2530;47.990;7.866;2023-08-24T00:03:52;21.70;99.90
5023;DHT22;2530;47.990;7.866;2023-08-24T00:06:18;21.50;99.90
5023;DHT22;2530;47.990;7.866;2023-08-24T00:08:43;21.50;99.90
5023;DHT22;2530;47.990;7.866;2023-08-24T00:11:10;21.60;99.90
5023;DHT22;2530;47.990;7.866;2023-08-24T00:13:43;21.60;99.90
5023;DHT22;2530;47.990;7.866;2023-08-24T00:16:14;21.60;99.90
5023;DHT22;2530;47.990;7.866;2023-08-24T00:18:40;21.40;99.90
5023;DHT22;2530;47.990;7.866;2023-08-24T00:21:06;21.50;99.90
5023;DHT22;2530;47.990;7.866;2023-08-24T00:23:33;21.50;99.90
5023;DHT22;2530;47.990;7.866;2023-08-24T00:25:58;21.50;99.90
5023;DHT22;2530;47.990;7.866;2023-08-24T00:28:25;21.40;99.90
5023;DHT22;2530;47.990;7.866;2023-08-24T00:30:51;21.40;99.90
5023;DHT22;2530;47.990;7.866;2023-08-24T00:33:17;21.40;99.90
5023;DHT22;2530;47.990;7.866;2023-08-24T00:35:42;21.20;99.90
5023;DHT22;2530;47.990;7.866;2023-08-24T00:38:08;21.20;99.90
5023;DHT22;2530;47.990;7.866;2023-08-24T00:40:33;21.10;99.90
5023;DHT22;2530;47.990;7.866;2023-08-24T00:42:59;20.80;99.90
5023;DHT22;2530;47.990;7.866;2023-08-24T00:45:25;21.20;99.90
5023;DHT22;2530;47.990;7.866;2023-08-24T00:47:51;21.20;99.90
5023;DHT22;2530;47.990;7.866;2023-08-24T00:50:17;21.30;99.90
5023;DHT22;2530;47.990;7.866;2023-08-24T00:52:43;21.20;99.90
5023;DHT22;2530;47.990;7.866;2023-08-24T00:55:09;21.00;99.90
5023;DHT22;2530;47.990;7.866;2023-08-24T00:57:37;21.10;99.90
5023;DHT22;2530;47.990;7.866;2023-08-24T01:00:05;21.20;99.90
5023;DHT22;2530;47.990;7.866;2023-08-24T01:02:31;21.10;99.90
5023;DHT22;2530;47.990;7.866;2023-08-24T01:04:58;21.10;99.90
5023;DHT22;2530;47.990;7.866;2023-08-24T01:07:24;21.20;99.90
5023;DHT22;2530;47.990;7.866;2023-08-24T01:09:50;21.10;99.90
5023;DHT22;2530;47.990;7.866;2023-08-24T01:15:21;21.10;99.90
5023;DHT22;2530;47.990;7.866;2023-08-24T01:17:52;21.00;99.90
5023;DHT22;2530;47.990;7.866;2023-08-24T01:20:20;21.10;99.90
5023;DHT22;2530;47.990;7.866;2023-08-24T01:25:38;21.00;99.90
5023;DHT22;2530;47.990;7.866;2023-08-24T01:28:06;20.90;99.90
5023;DHT22;2530;47.990;7.866;2023-08-24T01:30:34;21.00;99.90
5023;DHT22;2530;47.990;7.866;2023-08-24T01:33:02;21.00;99.90
5023;DHT22;2530;47.990;7.866;2023-08-24T01:35:28;21.00;99.90
5023;DHT22;2530;47.990;7.866;2023-08-24T01:37:54;20.90;99.90
5023;DHT22;2530;47.990;7.866;2023-08-24T01:43:18;21.00;99.90
5023;DHT22;2530;47.990;7.866;2023-08-24T01:45:46;21.00;99.90
5023;DHT22;2530;47.990;7.866;2023-08-24T01:48:13;20.40;99.90
5023;DHT22;2530;47.990;7.866;2023-08-24T01:50:39;21.00;99.90
5023;DHT22;2530;47.990;7.866;2023-08-24T01:53:04;21.00;99.90
5023;DHT22;2530;47.990;7.866;2023-08-24T01:55:30;21.00;99.90
5023;DHT22;2530;47.990;7.866;2023-08-24T01:57:56;21.10;99.90
5023;DHT22;2530;47.990;7.866;2023-08-24T02:00:22;21.10;99.90
5023;DHT22;2530;47.990;7.866;2023-08-24T02:02:48;21.20;99.90
5023;DHT22;2530;47.990;7.866;2023-08-24T02:05:13;21.20;99.90
5023;DHT22;2530;47.990;7.866;2023-08-24T02:07:39;21.10;99.90
5023;DHT22;2530;47.990;7.866;2023-08-24T02:10:08;21.00;99.90
5023;DHT22;2530;47.990;7.866;2023-08-24T02:12:33;20.90;99.90
5023;DHT22;2530;47.990;7.866;2023-08-24T02:14:59;21.10;99.90
5023;DHT22;2530;47.990;7.866;2023-08-24T02:17:26;21.10;99.90
5023;DHT22;2530;47.990;7.866;2023-08-24T02:19:51;21.00;99.90
5023;DHT22;2530;47.990;7.866;2023-08-24T02:22:17;21.10;99.90
5023;DHT22;2530;47.990;7.866;2023-08-24T02:24:43;21.10;99.90
5023;DHT22;2530;47.990;7.866;2023-08-24T02:27:09;21.10;99.90
5023;DHT22;2530;47.990;7.866;2023-08-24T02:29:34;21.40;99.90
5023;DHT22;2530;47.990;7.866;2023-08-24T02:32:00;21.10;99.90
5023;DHT22;2530;47.990;7.866;2023-08-24T02:34:25;21.20;99.90
5023;DHT22;2530;47.990;7.866;2023-08-24T02:36:51;21.20;99.90
5023;DHT22;2530;47.990;7.866;2023-08-24T02:39:17;21.10;99.90
5023;DHT22;2530;47.990;7.866;2023-08-24T02:41:42;21.10;99.90
5023;DHT22;2530;47.990;7.866;2023-08-24T02:44:08;21.10;99.90
5023;DHT22;2530;47.990;7.866;2023-08-24T02:46:33;21.20;99.90
5023;DHT22;2530;47.990;7.866;2023-08-24T02:49:00;21.20;99.90
5023;DHT22;2530;47.990;7.866;2023-08-24T02:51:25;21.20;99.90
5023;DHT22;2530;47.990;7.866;2023-08-24T02:53:51;21.20;99.90
5023;DHT22;2530;47.990;7.866;2023-08-24T02:56:17;21.00;99.90
5023;DHT22;2530;47.990;7.866;2023-08-24T02:58:42;21.00;99.90
5023;DHT22;2530;47.990;7.866;2023-08-24T03:01:08;20.90;99.90
5023;DHT22;2530;47.990;7.866;2023-08-24T03:03:35;21.00;99.90
5023;DHT22;2530;47.990;7.866;2023-08-24T03:06:05;21.00;99.90
5023;DHT22;2530;47.990;7.866;2023-08-24T03:08:32;21.00;99.90
5023;DHT22;2530;47.990;7.866;2023-08-24T03:10:59;20.90;99.90
5023;DHT22;2530;47.990;7.866;2023-08-24T03:13:25;21.00;99.90
5023;DHT22;2530;47.990;7.866;2023-08-24T03:15:51;20.90;99.90
5023;DHT22;2530;47.990;7.866;2023-08-24T03:18:17;20.80;99.90
5023;DHT22;2530;47.990;7.866;2023-08-24T03:20:47;20.80;99.90
5023;DHT22;2530;47.990;7.866;2023-08-24T03:23:14;20.70;99.90
5023;DHT22;2530;47.990;7.866;2023-08-24T03:25:40;20.60;99.90
5023;DHT22;2530;47.990;7.866;2023-08-24T03:28:07;20.50;99.90
5023;DHT22;2530;47.990;7.866;2023-08-24T03:30:37;20.40;99.90
5023;DHT22;2530;47.990;7.866;2023-08-24T03:33:04;20.40;99.90
5023;DHT22;2530;47.990;7.866;2023-08-24T03:35:30;20.40;99.90
5023;DHT22;2530;47.990;7.866;2023-08-24T03:37:56;20.50;99.90
5023;DHT22;2530;47.990;7.866;2023-08-24T03:40:22;20.50;99.90
5023;DHT22;2530;47.990;7.866;2023-08-24T03:42:47;19.50;99.90
5023;DHT22;2530;47.990;7.866;2023-08-24T03:45:13;20.40;99.90
5023;DHT22;2530;47.990;7.866;2023-08-24T03:47:38;20.40;99.90
5023;DHT22;2530;47.990;7.866;2023-08-24T03:50:04;20.30;99.90
5023;DHT22;2530;47.990;7.866;2023-08-24T03:52:30;20.20;99.90
5023;DHT22;2530;47.990;7.866;2023-08-24T03:54:56;20.30;99.90
5023;DHT22;2530;47.990;7.866;2023-08-24T03:57:22;20.30;99.90
5023;DHT22;2530;47.990;7.866;2023-08-24T03:59:47;20.20;99.90
5023;DHT22;2530;47.990;7.866;2023-08-24T04:02:13;20.20;99.90
5023;DHT22;2530;47.990;7.866;2023-08-24T04:04:38;20.20;99.90
5023;DHT22;2530;47.990;7.866;2023-08-24T04:07:04;20.20;99.90
5023;DHT22;2530;47.990;7.866;2023-08-24T04:09:30;20.50;99.90
5023;DHT22;2530;47.990;7.866;2023-08-24T04:11:56;20.50;99.90
5023;DHT22;2530;47.990;7.866;2023-08-24T04:14:21;20.50;99.90
5023;DHT22;2530;47.990;7.866;2023-08-24T04:16:47;20.50;99.90
5023;DHT22;2530;47.990;7.866;2023-08-24T04:19:13;20.50;99.90
5023;DHT22;2530;47.990;7.866;2023-08-24T04:21:38;20.70;99.90
5023;DHT22;2530;47.990;7.866;2023-08-24T04:24:04;20.50;99.90
5023;DHT22;2530;47.990;7.866;2023-08-24T04:26:30;20.50;99.90
5023;DHT22;2530;47.990;7.866;2023-08-24T04:28:56;20.40;99.90
5023;DHT22;2530;47.990;7.866;2023-08-24T04:31:21;20.70;99.90
5023;DHT22;2530;47.990;7.866;2023-08-24T04:33:47;20.50;99.90
5023;DHT22;2530;47.990;7.866;2023-08-24T04:36:12;20.40;99.90
5023;DHT22;2530;47.990;7.866;2023-08-24T04:38:38;20.40;99.90
5023;DHT22;2530;47.990;7.866;2023-08-24T04:41:06;20.30;99.90
5023;DHT22;2530;47.990;7.866;2023-08-24T04:43:33;20.40;99.90
5023;DHT22;2530;47.990;7.866;2023-08-24T04:45:58;20.40;99.90
5023;DHT22;2530;47.990;7.866;2023-08-24T04:48:25;20.40;99.90
5023;DHT22;2530;47.990;7.866;2023-08-24T04:50:51;20.40;99.90
5023;DHT22;2530;47.990;7.866;2023-08-24T04:53:19;20.50;99.90
5023;DHT22;2530;47.990;7.866;2023-08-24T04:55:46;20.50;99.90
5023;DHT22;2530;47.990;7.866;2023-08-24T04:58:12;20.50;99.90
5023;DHT22;2530;47.990;7.866;2023-08-24T05:00:39;20.60;99.90
5023;DHT22;2530;47.990;7.866;2023-08-24T05:03:05;20.70;99.90
5023;DHT22;2530;47.990;7.866;2023-08-24T05:05:32;20.60;99.90
5023;DHT22;2530;47.990;7.866;2023-08-24T05:07:58;20.60;99.90
5023;DHT22;2530;47.990;7.866;2023-08-24T05:10:25;20.60;99.90
5023;DHT22;2530;47.990;7.866;2023-08-24T05:12:50;20.60;99.90
5023;DHT22;2530;47.990;7.866;2023-08-24T05:15:16;20.70;99.90
5023;DHT22;2530;47.990;7.866;2023-08-24T05:17:42;20.80;99.90
5023;DHT22;2530;47.990;7.866;2023-08-24T05:20:08;20.80;99.90
5023;DHT22;2530;47.990;7.866;2023-08-24T05:22:36;20.80;99.90
5023;DHT22;2530;47.990;7.866;2023-08-24T05:25:02;20.80;99.90
5023;DHT22;2530;47.990;7.866;2023-08-24T05:27:27;20.90;99.90
5023;DHT22;2530;47.990;7.866;2023-08-24T05:29:53;20.90;99.90
5023;DHT22;2530;47.990;7.866;2023-08-24T05:32:18;21.00;99.90
5023;DHT22;2530;47.990;7.866;2023-08-24T05:34:45;20.90;99.90
5023;DHT22;2530;47.990;7.866;2023-08-24T05:37:11;21.00;99.90
5023;DHT22;2530;47.990;7.866;2023-08-24T05:39:37;21.00;99.90
5023;DHT22;2530;47.990;7.866;2023-08-24T05:42:02;21.00;99.90
5023;DHT22;2530;47.990;7.866;2023-08-24T05:44:28;21.20;99.90
5023;DHT22;2530;47.990;7.866;2023-08-24T05:46:53;21.20;99.90
5023;DHT22;2530;47.990;7.866;2023-08-24T05:49:19;21.20;99.90
5023;DHT22;2530;47.990;7.866;2023-08-24T05:51:44;21.30;99.90
5023;DHT22;2530;47.990;7.866;2023-08-24T05:54:10;21.30;99.90
5023;DHT22;2530;47.990;7.866;2023-08-24T05:56:35;21.30;99.90
5023;DHT22;2530;47.990;7.866;2023-08-24T05:59:01;21.50;99.90
5023;DHT22;2530;47.990;7.866;2023-08-24T06:01:26;21.70;99.90
5023;DHT22;2530;47.990;7.866;2023-08-24T06:03:52;21.80;99.90
5023;DHT22;2530;47.990;7.866;2023-08-24T06:06:17;21.70;99.90
5023;DHT22;2530;47.990;7.866;2023-08-24T06:08:43;21.70;99.90
5023;DHT22;2530;47.990;7.866;2023-08-24T06:11:09;21.80;99.90
5023;DHT22;2530;47.990;7.866;2023-08-24T06:13:35;22.00;99.90
5023;DHT22;2530;47.990;7.866;2023-08-24T06:16:00;22.00;99.90
5023;DHT22;2530;47.990;7.866;2023-08-24T06:18:27;22.00;99.90
5023;DHT22;2530;47.990;7.866;2023-08-24T06:20:53;22.00;99.90
5023;DHT22;2530;47.990;7.866;2023-08-24T06:23:19;22.00;99.90
5023;DHT22;2530;47.990;7.866;2023-08-24T06:25:45;22.00;99.90
5023;DHT22;2530;47.990;7.866;2023-08-24T06:28:11;22.20;99.90
5023;DHT22;2530;47.990;7.866;2023-08-24T06:30:38;22.00;99.90
5023;DHT22;2530;47.990;7.866;2023-08-24T06:33:05;22.10;99.90
5023;DHT22;2530;47.990;7.866;2023-08-24T06:35:31;22.20;99.90
5023;DHT22;2530;47.990;7.866;2023-08-24T06:37:57;22.60;99.90
5023;DHT22;2530;47.990;7.866;2023-08-24T06:40:22;22.20;99.90
5023;DHT22;2530;47.990;7.866;2023-08-24T06:42:48;22.30;99.90
5023;DHT22;2530;47.990;7.866;2023-08-24T06:45:13;22.30;99.90
5023;DHT22;2530;47.990;7.866;2023-08-24T06:47:39;22.40;99.90
5023;DHT22;2530;47.990;7.866;2023-08-24T06:50:06;22.50;99.90
5023;DHT22;2530;47.990;7.866;2023-08-24T06:52:31;22.50;99.90
5023;DHT22;2530;47.990;7.866;2023-08-24T06:54:57;22.50;99.90
5023;DHT22;2530;47.990;7.866;2023-08-24T06:57:23;22.40;99.90
5023;DHT22;2530;47.990;7.866;2023-08-24T06:59:49;22.40;99.90
5023;DHT22;2530;47.990;7.866;2023-08-24T07:02:14;22.60;99.90
5023;DHT22;2530;47.990;7.866;2023-08-24T07:04:40;22.50;99.90
5023;DHT22;2530;47.990;7.866;2023-08-24T07:07:06;22.50;99.90
5023;DHT22;2530;47.990;7.866;2023-08-24T07:09:32;22.50;99.90
5023;DHT22;2530;47.990;7.866;2023-08-24T07:11:58;22.60;99.90
5023;DHT22;2530;47.990;7.866;2023-08-24T07:14:23;22.60;99.90
5023;DHT22;2530;47.990;7.866;2023-08-24T07:16:49;22.70;99.90
5023;DHT22;2530;47.990;7.866;2023-08-24T07:19:14;22.70;99.90
5023;DHT22;2530;47.990;7.866;2023-08-24T07:21:40;22.60;99.90
5023;DHT22;2530;47.990;7.866;2023-08-24T07:24:05;22.70;99.90
5023;DHT22;2530;47.990;7.866;2023-08-24T07:26:31;22.80;99.90
5023;DHT22;2530;47.990;7.866;2023-08-24T07:28:57;22.90;99.90
5023;DHT22;2530;47.990;7.866;2023-08-24T07:31:22;23.10;99.90
5023;DHT22;2530;47.990;7.866;2023-08-24T07:33:48;23.10;99.90
5023;DHT22;2530;47.990;7.866;2023-08-24T07:36:14;23.10;99.90
5023;DHT22;2530;47.990;7.866;2023-08-24T07:38:40;23.20;99.90
5023;DHT22;2530;47.990;7.866;2023-08-24T07:41:06;23.30;99.90
5023;DHT22;2530;47.990;7.866;2023-08-24T07:43:32;23.40;99.90
5023;DHT22;2530;47.990;7.866;2023-08-24T07:45:58;23.40;99.90
5023;DHT22;2530;47.990;7.866;2023-08-24T07:48:25;23.50;99.90
5023;DHT22;2530;47.990;7.866;2023-08-24T07:50:50;23.70;99.90
5023;DHT22;2530;47.990;7.866;2023-08-24T07:53:16;23.80;99.90
5023;DHT22;2530;47.990;7.866;2023-08-24T07:55:42;24.00;99.90
5023;DHT22;2530;47.990;7.866;2023-08-24T07:58:08;24.10;99.90
5023;DHT22;2530;47.990;7.866;2023-08-24T08:00:34;24.10;99.90
5023;DHT22;2530;47.990;7.866;2023-08-24T08:03:00;24.40;99.90
5023;DHT22;2530;47.990;7.866;2023-08-24T08:05:25;24.60;99.90
5023;DHT22;2530;47.990;7.866;2023-08-24T08:07:52;24.70;99.90
5023;DHT22;2530;47.990;7.866;2023-08-24T08:10:17;24.80;99.90
5023;DHT22;2530;47.990;7.866;2023-08-24T08:12:43;24.90;99.90
5023;DHT22;2530;47.990;7.866;2023-08-24T08:15:08;24.80;99.90
5023;DHT22;2530;47.990;7.866;2023-08-24T08:17:34;24.70;99.90
5023;DHT22;2530;47.990;7.866;2023-08-24T08:20:00;24.80;99.90
5023;DHT22;2530;47.990;7.866;2023-08-24T08:22:25;24.80;99.90
5023;DHT22;2530;47.990;7.866;2023-08-24T08:24:51;24.70;99.90
5023;DHT22;2530;47.990;7.866;2023-08-24T08:27:20;24.70;99.90
5023;DHT22;2530;47.990;7.866;2023-08-24T08:29:46;24.80;99.90
5023;DHT22;2530;47.990;7.866;2023-08-24T08:32:12;24.90;99.90
5023;DHT22;2530;47.990;7.866;2023-08-24T08:34:38;25.10;99.90
5023;DHT22;2530;47.990;7.866;2023-08-24T08:37:03;25.20;99.90
5023;DHT22;2530;47.990;7.866;2023-08-24T08:39:29;25.40;99.90
5023;DHT22;2530;47.990;7.866;2023-08-24T08:41:55;25.00;1.00
5023;DHT22;2530;47.990;7.866;2023-08-24T08:44:22;25.30;1.00
5023;DHT22;2530;47.990;7.866;2023-08-24T08:46:49;25.40;98.50
5023;DHT22;2530;47.990;7.866;2023-08-24T08:49:16;25.50;99.90
5023;DHT22;2530;47.990;7.866;2023-08-24T08:51:41;25.60;99.90
5023;DHT22;2530;47.990;7.866;2023-08-24T08:54:08;25.80;99.90
5023;DHT22;2530;47.990;7.866;2023-08-24T08:56:33;25.70;99.90
5023;DHT22;2530;47.990;7.866;2023-08-24T08:59:00;25.80;99.90
5023;DHT22;2530;47.990;7.866;2023-08-24T09:01:27;26.00;99.90
5023;DHT22;2530;47.990;7.866;2023-08-24T09:03:53;26.30;99.90
5023;DHT22;2530;47.990;7.866;2023-08-24T09:06:20;26.20;99.90
5023;DHT22;2530;47.990;7.866;2023-08-24T09:08:47;26.20;99.90
5023;DHT22;2530;47.990;7.866;2023-08-24T09:11:12;26.20;99.90
5023;DHT22;2530;47.990;7.866;2023-08-24T09:13:39;26.10;99.90
5023;DHT22;2530;47.990;7.866;2023-08-24T09:16:06;25.90;99.90
5023;DHT22;2530;47.990;7.866;2023-08-24T09:18:39;26.00;99.90
5023;DHT22;2530;47.990;7.866;2023-08-24T09:21:09;26.10;99.90
5023;DHT22;2530;47.990;7.866;2023-08-24T09:23:35;26.20;99.90
5023;DHT22;2530;47.990;7.866;2023-08-24T09:26:00;26.30;99.90
5023;DHT22;2530;47.990;7.866;2023-08-24T09:28:26;26.20;99.90
5023;DHT22;2530;47.990;7.866;2023-08-24T09:30:54;26.40;99.90
5023;DHT22;2530;47.990;7.866;2023-08-24T09:33:20;26.40;99.90
5023;DHT22;2530;47.990;7.866;2023-08-24T09:35:52;26.50;99.90
5023;DHT22;2530;47.990;7.866;2023-08-24T09:38:19;26.50;99.90
5023;DHT22;2530;47.990;7.866;2023-08-24T09:40:50;26.70;99.90
5023;DHT22;2530;47.990;7.866;2023-08-24T09:43:18;26.50;99.90
5023;DHT22;2530;47.990;7.866;2023-08-24T09:45:51;26.40;99.90
5023;DHT22;2530;47.990;7.866;2023-08-24T09:48:17;26.70;99.90
5023;DHT22;2530;47.990;7.866;2023-08-24T09:50:48;26.70;99.90
5023;DHT22;2530;47.990;7.866;2023-08-24T09:53:23;26.70;99.90
5023;DHT22;2530;47.990;7.866;2023-08-24T09:55:53;26.80;99.90
5023;DHT22;2530;47.990;7.866;2023-08-24T09:58:20;27.00;6.60
5023;DHT22;2530;47.990;7.866;2023-08-24T10:00:47;27.10;1.00
5023;DHT22;2530;47.990;7.866;2023-08-24T10:03:18;27.10;1.00
5023;DHT22;2530;47.990;7.866;2023-08-24T10:05:48;27.00;94.60
5023;DHT22;2530;47.990;7.866;2023-08-24T10:08:18;27.10;1.00
5023;DHT22;2530;47.990;7.866;2023-08-24T10:10:44;27.30;1.00
5023;DHT22;2530;47.990;7.866;2023-08-24T10:13:18;27.50;1.00
5023;DHT22;2530;47.990;7.866;2023-08-24T10:15:47;27.60;1.00
5023;DHT22;2530;47.990;7.866;2023-08-24T10:18:15;27.50;1.00
5023;DHT22;2530;47.990;7.866;2023-08-24T10:20:42;27.60;1.00
5023;DHT22;2530;47.990;7.866;2023-08-24T10:23:11;27.50;1.00
5023;DHT22;2530;47.990;7.866;2023-08-24T10:25:37;27.70;1.00
5023;DHT22;2530;47.990;7.866;2023-08-24T10:28:04;27.70;1.00
5023;DHT22;2530;47.990;7.866;2023-08-24T10:30:31;27.50;1.00
5023;DHT22;2530;47.990;7.866;2023-08-24T10:32:57;27.90;1.00
5023;DHT22;2530;47.990;7.866;2023-08-24T10:35:24;27.90;1.00
5023;DHT22;2530;47.990;7.866;2023-08-24T10:37:52;28.20;1.00
5023;DHT22;2530;47.990;7.866;2023-08-24T10:40:35;28.20;1.00
5023;DHT22;2530;47.990;7.866;2023-08-24T10:43:05;28.20;1.00
5023;DHT22;2530;47.990;7.866;2023-08-24T10:45:56;28.10;1.00
5023;DHT22;2530;47.990;7.866;2023-08-24T10:48:23;28.40;1.00
5023;DHT22;2530;47.990;7.866;2023-08-24T10:53:40;28.60;1.00
5023;DHT22;2530;47.990;7.866;2023-08-24T10:56:17;28.40;1.00
5023;DHT22;2530;47.990;7.866;2023-08-24T10:58:44;28.60;1.00
5023;DHT22;2530;47.990;7.866;2023-08-24T11:01:17;28.50;1.00
5023;DHT22;2530;47.990;7.866;2023-08-24T11:03:49;28.80;1.00
5023;DHT22;2530;47.990;7.866;2023-08-24T11:06:22;28.80;1.00
5023;DHT22;2530;47.990;7.866;2023-08-24T11:08:48;29.20;1.00
5023;DHT22;2530;47.990;7.866;2023-08-24T11:11:22;29.40;1.00
5023;DHT22;2530;47.990;7.866;2023-08-24T11:14:13;29.10;1.00
5023;DHT22;2530;47.990;7.866;2023-08-24T11:16:39;29.40;1.00
5023;DHT22;2530;47.990;7.866;2023-08-24T11:19:06;29.60;1.00
5023;DHT22;2530;47.990;7.866;2023-08-24T11:21:33;29.80;1.00
5023;DHT22;2530;47.990;7.866;2023-08-24T11:24:00;29.90;1.00
5023;DHT22;2530;47.990;7.866;2023-08-24T11:26:25;30.00;1.00
5023;DHT22;2530;47.990;7.866;2023-08-24T11:28:54;30.30;1.00
5023;DHT22;2530;47.990;7.866;2023-08-24T11:31:20;30.60;1.00
5023;DHT22;2530;47.990;7.866;2023-08-24T11:33:46;31.00;1.00
5023;DHT22;2530;47.990;7.866;2023-08-24T11:36:12;31.20;1.00
5023;DHT22;2530;47.990;7.866;2023-08-24T11:38:42;31.30;1.00
5023;DHT22;2530;47.990;7.866;2023-08-24T11:41:18;31.80;1.00
5023;DHT22;2530;47.990;7.866;2023-08-24T11:43:45;31.90;1.00
5023;DHT22;2530;47.990;7.866;2023-08-24T11:46:12;31.80;1.00
5023;DHT22;2530;47.990;7.866;2023-08-24T11:48:38;32.50;1.00
5023;DHT22;2530;47.990;7.866;2023-08-24T11:51:08;32.40;1.00
5023;DHT22;2530;47.990;7.866;2023-08-24T11:53:45;32.20;1.00
5023;DHT22;2530;47.990;7.866;2023-08-24T11:56:11;33.00;1.00
5023;DHT22;2530;47.990;7.866;2023-08-24T11:58:41;33.50;1.00
5023;DHT22;2530;47.990;7.866;2023-08-24T12:01:11;33.90;1.00
5023;DHT22;2530;47.990;7.866;2023-08-24T12:03:40;34.00;1.00
5023;DHT22;2530;47.990;7.866;2023-08-24T12:06:14;33.90;1.00
5023;DHT22;2530;47.990;7.866;2023-08-24T12:08:41;33.70;1.00
5023;DHT22;2530;47.990;7.866;2023-08-24T12:11:37;33.20;1.00
5023;DHT22;2530;47.990;7.866;2023-08-24T12:14:03;33.70;1.00
5023;DHT22;2530;47.990;7.866;2023-08-24T12:16:32;33.20;1.00
5023;DHT22;2530;47.990;7.866;2023-08-24T12:18:59;33.20;1.00
5023;DHT22;2530;47.990;7.866;2023-08-24T12:21:26;33.10;1.00
5023;DHT22;2530;47.990;7.866;2023-08-24T12:23:59;33.00;1.00
5023;DHT22;2530;47.990;7.866;2023-08-24T12:26:26;33.20;1.00
5023;DHT22;2530;47.990;7.866;2023-08-24T12:28:52;33.50;1.00
5023;DHT22;2530;47.990;7.866;2023-08-24T12:31:24;33.50;1.00
5023;DHT22;2530;47.990;7.866;2023-08-24T12:33:59;33.00;1.00
5023;DHT22;2530;47.990;7.866;2023-08-24T12:36:25;33.30;1.00
5023;DHT22;2530;47.990;7.866;2023-08-24T12:38:51;33.60;1.00
5023;DHT22;2530;47.990;7.866;2023-08-24T12:41:16;33.90;1.00
5023;DHT22;2530;47.990;7.866;2023-08-24T12:43:42;34.00;1.00
5023;DHT22;2530;47.990;7.866;2023-08-24T12:46:07;33.80;1.00
5023;DHT22;2530;47.990;7.866;2023-08-24T12:48:33;34.00;1.00
5023;DHT22;2530;47.990;7.866;2023-08-24T12:50:58;33.60;1.00
5023;DHT22;2530;47.990;7.866;2023-08-24T12:53:24;33.80;1.00
5023;DHT22;2530;47.990;7.866;2023-08-24T12:55:49;33.90;1.00
5023;DHT22;2530;47.990;7.866;2023-08-24T12:58:15;33.50;1.00
5023;DHT22;2530;47.990;7.866;2023-08-24T13:00:40;33.90;1.00
5023;DHT22;2530;47.990;7.866;2023-08-24T13:03:06;33.90;1.00
5023;DHT22;2530;47.990;7.866;2023-08-24T13:05:32;33.60;1.00
5023;DHT22;2530;47.990;7.866;2023-08-24T13:07:57;33.80;1.00
5023;DHT22;2530;47.990;7.866;2023-08-24T13:10:23;34.10;1.00
5023;DHT22;2530;47.990;7.866;2023-08-24T13:12:48;34.00;1.00
5023;DHT22;2530;47.990;7.866;2023-08-24T13:15:14;34.40;1.00
5023;DHT22;2530;47.990;7.866;2023-08-24T13:17:40;33.70;1.00
5023;DHT22;2530;47.990;7.866;2023-08-24T13:20:06;34.10;1.00
5023;DHT22;2530;47.990;7.866;2023-08-24T13:22:33;34.20;1.00
5023;DHT22;2530;47.990;7.866;2023-08-24T13:24:59;34.30;1.00
5023;DHT22;2530;47.990;7.866;2023-08-24T13:27:24;34.10;1.00
5023;DHT22;2530;47.990;7.866;2023-08-24T13:29:50;34.40;1.00
5023;DHT22;2530;47.990;7.866;2023-08-24T13:32:15;34.80;1.00
5023;DHT22;2530;47.990;7.866;2023-08-24T13:34:41;34.80;1.00
5023;DHT22;2530;47.990;7.866;2023-08-24T13:37:06;35.00;1.00
5023;DHT22;2530;47.990;7.866;2023-08-24T13:39:32;35.00;1.00
5023;DHT22;2530;47.990;7.866;2023-08-24T13:41:58;35.40;1.00
5023;DHT22;2530;47.990;7.866;2023-08-24T13:44:24;35.20;1.00
5023;DHT22;2530;47.990;7.866;2023-08-24T13:46:50;35.00;1.00
5023;DHT22;2530;47.990;7.866;2023-08-24T13:49:19;35.30;1.00
5023;DHT22;2530;47.990;7.866;2023-08-24T13:51:45;35.00;1.00
5023;DHT22;2530;47.990;7.866;2023-08-24T13:54:18;35.00;1.00
5023;DHT22;2530;47.990;7.866;2023-08-24T13:56:44;35.30;1.00
5023;DHT22;2530;47.990;7.866;2023-08-24T13:59:11;35.20;1.00
5023;DHT22;2530;47.990;7.866;2023-08-24T14:01:36;35.30;1.00
5023;DHT22;2530;47.990;7.866;2023-08-24T14:04:03;35.50;1.00
5023;DHT22;2530;47.990;7.866;2023-08-24T14:06:29;35.30;1.00
5023;DHT22;2530;47.990;7.866;2023-08-24T14:08:56;35.40;1.00
5023;DHT22;2530;47.990;7.866;2023-08-24T14:11:21;35.50;1.00
5023;DHT22;2530;47.990;7.866;2023-08-24T14:13:47;35.80;1.00
5023;DHT22;2530;47.990;7.866;2023-08-24T14:16:12;35.70;1.00
5023;DHT22;2530;47.990;7.866;2023-08-24T14:18:38;35.70;1.00
5023;DHT22;2530;47.990;7.866;2023-08-24T14:21:04;36.00;1.00
5023;DHT22;2530;47.990;7.866;2023-08-24T14:23:29;36.00;1.00
5023;DHT22;2530;47.990;7.866;2023-08-24T14:25:55;36.10;1.00
5023;DHT22;2530;47.990;7.866;2023-08-24T14:28:21;36.20;1.00
5023;DHT22;2530;47.990;7.866;2023-08-24T14:30:50;36.60;1.00
5023;DHT22;2530;47.990;7.866;2023-08-24T14:33:16;36.30;1.00
5023;DHT22;2530;47.990;7.866;2023-08-24T14:35:52;36.30;1.00
5023;DHT22;2530;47.990;7.866;2023-08-24T14:38:18;36.50;1.00
5023;DHT22;2530;47.990;7.866;2023-08-24T14:40:44;36.50;1.00
5023;DHT22;2530;47.990;7.866;2023-08-24T14:43:09;36.00;1.00
5023;DHT22;2530;47.990;7.866;2023-08-24T14:45:35;35.70;1.00
5023;DHT22;2530;47.990;7.866;2023-08-24T14:48:01;35.50;1.00
5023;DHT22;2530;47.990;7.866;2023-08-24T14:50:26;35.50;1.00
5023;DHT22;2530;47.990;7.866;2023-08-24T14:52:52;35.50;1.00
5023;DHT22;2530;47.990;7.866;2023-08-24T14:55:17;35.30;1.00
5023;DHT22;2530;47.990;7.866;2023-08-24T14:57:44;35.00;1.00
5023;DHT22;2530;47.990;7.866;2023-08-24T15:00:09;35.30;1.00
5023;DHT22;2530;47.990;7.866;2023-08-24T15:02:35;35.50;1.00
5023;DHT22;2530;47.990;7.866;2023-08-24T15:05:02;35.40;1.00
5023;DHT22;2530;47.990;7.866;2023-08-24T15:07:28;34.60;1.00
5023;DHT22;2530;47.990;7.866;2023-08-24T15:09:54;34.80;1.00
5023;DHT22;2530;47.990;7.866;2023-08-24T15:13:24;34.00;1.00
5023;DHT22;2530;47.990;7.866;2023-08-24T19:16:00;20.30;99.90
5023;DHT22;2530;47.990;7.866;2023-08-24T19:20:52;20.10;99.90
5023;DHT22;2530;47.990;7.866;2023-08-24T19:23:18;20.10;99.90
5023;DHT22;2530;47.990;7.866;2023-08-24T19:25:45;19.50;99.90
5023;DHT22;2530;47.990;7.866;2023-08-24T19:28:11;19.50;99.90
5023;DHT22;2530;47.990;7.866;2023-08-24T19:30:39;19.60;99.90
5023;DHT22;2530;47.990;7.866;2023-08-24T19:33:05;20.10;99.90
5023;DHT22;2530;47.990;7.866;2023-08-24T19:50:08;19.60;99.90
5023;DHT22;2530;47.990;7.866;2023-08-24T20:02:25;19.80;99.90
5023;DHT22;2530;47.990;7.866;2023-08-24T20:24:19;19.50;99.90
5023;DHT22;2530;47.990;7.866;2023-08-24T23:14:52;19.00;99.90
5023;DHT22;2530;47.990;7.866;2023-08-24T23:56:22;19.80;99.90
